createdAt,value
2019-05-28T00:00:19.964Z,99.90
2019-05-28T00:02:48.059Z,99.90
2019-05-28T00:05:16.408Z,99.90
2019-05-28T00:07:43.787Z,99.90
2019-05-28T00:10:11.264Z,99.90
2019-05-28T00:12:41.750Z,99.90
2019-05-28T00:15:09.274Z,99.90
2019-05-28T00:17:36.584Z,99.90
2019-05-28T00:20:04.156Z,99.90
2019-05-28T00:22:34.765Z,99.90
2019-05-28T00:25:02.082Z,99.90
2019-05-28T00:27:29.665Z,99.90
2019-05-28T00:29:57.228Z,99.90
2019-05-28T00:32:24.546Z,99.90
2019-05-28T00:34:51.922Z,99.90
2019-05-28T00:37:19.256Z,99.90
2019-05-28T00:39:46.840Z,99.90
2019-05-28T00:42:14.103Z,99.90
2019-05-28T00:44:41.462Z,99.90
2019-05-28T00:47:08.788Z,99.90
2019-05-28T00:49:36.524Z,99.90
2019-05-28T00:52:06.316Z,99.90
2019-05-28T00:54:34.159Z,99.90
2019-05-28T00:57:01.955Z,99.90
2019-05-28T00:59:30.184Z,99.90
2019-05-28T01:02:00.543Z,99.90
2019-05-28T01:04:28.053Z,99.90
2019-05-28T01:06:59.677Z,99.90
2019-05-28T01:09:27.385Z,99.90
2019-05-28T01:11:54.952Z,99.90
2019-05-28T01:14:22.320Z,99.90
2019-05-28T01:16:49.591Z,99.90
2019-05-28T01:19:16.820Z,99.90
2019-05-28T01:21:44.033Z,99.90
2019-05-28T01:24:11.455Z,99.90
2019-05-28T01:26:38.767Z,99.90
2019-05-28T01:29:06.374Z,99.90
2019-05-28T01:31:33.785Z,99.90
2019-05-28T01:34:01.257Z,99.90
2019-05-28T01:36:28.477Z,99.90
2019-05-28T01:38:55.758Z,99.90
2019-05-28T01:41:23.196Z,99.90
2019-05-28T01:43:50.805Z,99.90
2019-05-28T01:46:18.644Z,99.90
2019-05-28T01:48:47.765Z,99.90
2019-05-28T01:51:15.092Z,99.90
2019-05-28T01:53:42.365Z,99.90
2019-05-28T01:56:09.716Z,99.90
2019-05-28T01:58:36.947Z,99.90
2019-05-28T02:01:12.842Z,99.90
2019-05-28T02:03:33.665Z,99.90
2019-05-28T02:06:04.229Z,99.90
2019-05-28T02:08:31.884Z,99.90
2019-05-28T02:10:59.310Z,99.90
2019-05-28T02:13:26.670Z,99.90
2019-05-28T02:15:53.908Z,99.90
2019-05-28T02:18:21.524Z,99.90
2019-05-28T02:20:49.155Z,99.90
2019-05-28T02:23:16.452Z,99.90
2019-05-28T02:25:43.707Z,99.90
2019-05-28T02:28:11.041Z,99.90
2019-05-28T02:30:38.311Z,99.90
2019-05-28T02:33:05.627Z,99.90
2019-05-28T02:35:33.292Z,99.90
2019-05-28T02:38:00.603Z,99.90
2019-05-28T02:40:28.198Z,99.90
2019-05-28T02:42:55.685Z,99.90
2019-05-28T02:45:23.058Z,99.90
2019-05-28T02:47:50.316Z,99.90
2019-05-28T02:50:23.728Z,99.90
2019-05-28T02:52:51.253Z,99.90
2019-05-28T02:55:18.804Z,99.90
2019-05-28T02:57:48.595Z,99.90
2019-05-28T03:00:17.858Z,99.90
2019-05-28T03:02:47.253Z,99.90
2019-05-28T03:05:16.236Z,99.90
2019-05-28T03:07:45.956Z,99.90
2019-05-28T03:10:13.989Z,99.90
2019-05-28T03:12:41.166Z,99.90
2019-05-28T03:15:09.588Z,99.90
2019-05-28T03:17:39.333Z,99.90
2019-05-28T03:20:08.804Z,99.90
2019-05-28T03:22:37.584Z,99.90
2019-05-28T03:25:05.723Z,99.90
2019-05-28T03:27:33.066Z,99.90
2019-05-28T03:30:00.429Z,99.90
2019-05-28T03:32:27.655Z,99.90
2019-05-28T03:34:54.896Z,99.90
2019-05-28T03:37:22.781Z,99.90
2019-05-28T03:39:51.240Z,99.90
2019-05-28T03:42:18.849Z,99.90
2019-05-28T03:44:46.109Z,99.90
2019-05-28T03:47:13.368Z,99.90
2019-05-28T03:49:40.631Z,99.90
2019-05-28T03:52:07.869Z,99.90
2019-05-28T03:54:35.099Z,99.90
2019-05-28T03:57:02.336Z,99.90
2019-05-28T03:59:29.667Z,99.90
2019-05-28T04:01:57.301Z,99.90
2019-05-28T04:04:24.520Z,99.90
2019-05-28T04:06:52.112Z,99.90
2019-05-28T04:09:19.685Z,99.90
2019-05-28T04:11:47.221Z,99.90
2019-05-28T04:14:14.564Z,99.90
2019-05-28T04:16:41.924Z,99.90
2019-05-28T04:19:09.152Z,99.90
2019-05-28T04:21:36.370Z,99.90
2019-05-28T04:24:03.905Z,99.90
2019-05-28T04:26:31.162Z,99.90
2019-05-28T04:28:58.392Z,99.90
2019-05-28T04:31:25.973Z,99.90
2019-05-28T04:33:53.790Z,99.90
2019-05-28T04:36:21.529Z,99.90
2019-05-28T04:38:51.852Z,99.90
2019-05-28T04:41:19.015Z,99.90
2019-05-28T04:43:46.525Z,99.90
2019-05-28T04:46:13.868Z,99.90
2019-05-28T04:48:41.848Z,99.90
2019-05-28T04:51:09.116Z,99.90
2019-05-28T04:53:36.345Z,99.90
2019-05-28T04:56:03.627Z,99.90
2019-05-28T04:58:31.224Z,99.90
2019-05-28T05:00:59.441Z,99.90
2019-05-28T05:03:26.950Z,99.90
2019-05-28T05:05:54.692Z,99.90
2019-05-28T05:08:23.204Z,99.90
2019-05-28T05:10:52.169Z,99.90
2019-05-28T05:13:20.338Z,99.90
2019-05-28T05:15:49.557Z,99.90
2019-05-28T05:18:17.572Z,99.90
2019-05-28T05:20:46.109Z,99.90
2019-05-28T05:23:14.035Z,99.90
2019-05-28T05:25:42.135Z,99.90
2019-05-28T05:28:09.443Z,99.90
2019-05-28T05:30:36.731Z,99.90
2019-05-28T05:33:19.147Z,99.90
2019-05-28T05:35:37.080Z,99.90
2019-05-28T05:38:05.262Z,99.90
2019-05-28T05:40:33.158Z,99.90
2019-05-28T05:43:01.265Z,99.90
2019-05-28T05:45:29.974Z,99.90
2019-05-28T05:47:58.516Z,99.90
2019-05-28T05:50:28.565Z,99.90
2019-05-28T05:52:55.908Z,99.90
2019-05-28T05:55:23.495Z,99.90
2019-05-28T05:57:52.946Z,99.90
2019-05-28T06:00:20.800Z,99.90
2019-05-28T06:02:48.157Z,99.90
2019-05-28T06:05:15.712Z,99.90
2019-05-28T06:07:43.000Z,99.90
2019-05-28T06:10:11.922Z,99.90
2019-05-28T06:12:39.151Z,99.90
2019-05-28T06:15:06.545Z,99.90
2019-05-28T06:17:33.875Z,99.90
2019-05-28T06:20:01.715Z,99.90
2019-05-28T06:22:28.992Z,99.90
2019-05-28T06:24:56.652Z,99.90
2019-05-28T06:27:24.294Z,99.90
2019-05-28T06:29:51.514Z,99.90
2019-05-28T06:32:19.106Z,99.90
2019-05-28T06:34:46.384Z,99.90
2019-05-28T06:37:13.708Z,99.90
2019-05-28T06:39:41.065Z,99.90
2019-05-28T06:42:08.323Z,99.90
2019-05-28T06:44:35.895Z,99.90
2019-05-28T06:47:03.348Z,99.90
2019-05-28T06:49:31.223Z,99.90
2019-05-28T06:51:58.482Z,99.90
2019-05-28T06:54:25.735Z,99.90
2019-05-28T06:56:52.997Z,99.90
2019-05-28T06:59:25.482Z,99.90
2019-05-28T07:01:52.872Z,99.90
2019-05-28T07:04:32.337Z,99.90
2019-05-28T07:06:49.680Z,99.90
2019-05-28T07:09:17.049Z,99.90
2019-05-28T07:11:44.583Z,99.90
2019-05-28T07:14:11.868Z,99.90
2019-05-28T07:16:52.650Z,99.90
2019-05-28T07:19:23.490Z,99.90
2019-05-28T07:21:37.686Z,99.90
2019-05-28T07:24:05.203Z,99.90
2019-05-28T07:26:33.032Z,99.90
2019-05-28T07:29:00.308Z,99.90
2019-05-28T07:31:27.580Z,99.90
2019-05-28T07:33:54.844Z,99.90
2019-05-28T07:36:22.116Z,99.90
2019-05-28T07:38:49.404Z,99.90
2019-05-28T07:41:16.918Z,99.90
2019-05-28T07:43:44.645Z,99.90
2019-05-28T07:46:11.921Z,99.90
2019-05-28T07:48:39.618Z,99.90
2019-05-28T07:51:07.145Z,99.90
2019-05-28T07:53:40.170Z,99.90
2019-05-28T07:56:03.590Z,99.90
2019-05-28T07:58:31.155Z,99.90
2019-05-28T08:00:58.730Z,99.90
2019-05-28T08:03:25.997Z,99.90
2019-05-28T08:05:53.375Z,99.90
2019-05-28T08:08:20.596Z,99.90
2019-05-28T08:10:48.259Z,99.90
2019-05-28T08:13:15.398Z,99.90
2019-05-28T08:15:42.621Z,99.90
2019-05-28T08:18:09.893Z,99.90
2019-05-28T08:20:37.466Z,99.90
2019-05-28T08:23:05.099Z,99.90
2019-05-28T08:25:46.072Z,99.90
2019-05-28T08:28:18.675Z,99.90
2019-05-28T08:30:31.169Z,99.90
2019-05-28T08:32:58.884Z,99.90
2019-05-28T08:35:26.074Z,99.90
2019-05-28T08:37:53.479Z,99.90
2019-05-28T08:40:20.841Z,99.90
2019-05-28T08:42:48.120Z,99.90
2019-05-28T08:45:15.562Z,99.90
2019-05-28T08:47:43.373Z,99.90
2019-05-28T08:50:10.801Z,99.90
2019-05-28T08:52:38.054Z,99.90
2019-05-28T08:55:06.239Z,99.90
2019-05-28T08:57:33.727Z,99.90
2019-05-28T09:00:01.350Z,99.90
2019-05-28T09:02:29.075Z,99.90
2019-05-28T09:04:56.475Z,99.90
2019-05-28T09:07:24.257Z,99.90
2019-05-28T09:09:52.213Z,99.90
2019-05-28T09:12:19.489Z,99.90
2019-05-28T09:14:55.812Z,99.90
2019-05-28T09:17:16.315Z,99.90
2019-05-28T09:19:43.597Z,99.90
2019-05-28T09:22:24.705Z,99.90
2019-05-28T09:24:40.540Z,99.90
2019-05-28T09:27:07.828Z,99.90
2019-05-28T09:29:35.179Z,99.90
2019-05-28T09:32:02.606Z,99.90
2019-05-28T09:34:29.974Z,99.90
2019-05-28T09:36:57.209Z,99.90
2019-05-28T09:39:24.350Z,99.90
2019-05-28T09:41:51.613Z,99.90
2019-05-28T09:44:18.848Z,99.90
2019-05-28T09:46:46.497Z,99.90
2019-05-28T09:49:13.751Z,99.90
2019-05-28T09:51:40.996Z,99.90
2019-05-28T09:54:08.576Z,99.90
2019-05-28T09:56:35.855Z,99.90
2019-05-28T09:59:03.273Z,99.90
2019-05-28T10:01:31.066Z,99.90
2019-05-28T10:03:58.336Z,99.90
2019-05-28T10:06:36.849Z,99.90
2019-05-28T10:08:54.763Z,99.90
2019-05-28T10:11:22.415Z,99.90
2019-05-28T10:13:49.812Z,99.90
2019-05-28T10:16:17.090Z,99.90
2019-05-28T10:18:44.397Z,99.90
2019-05-28T10:21:18.570Z,99.90
2019-05-28T10:23:43.092Z,99.90
2019-05-28T10:26:10.757Z,99.90
2019-05-28T10:28:38.024Z,99.90
2019-05-28T10:31:05.376Z,99.90
2019-05-28T10:33:32.539Z,99.90
2019-05-28T10:36:00.188Z,99.90
2019-05-28T10:38:28.223Z,99.90
2019-05-28T10:40:55.472Z,99.90
2019-05-28T10:43:22.732Z,99.90
2019-05-28T10:45:50.047Z,99.90
2019-05-28T10:48:17.341Z,99.90
2019-05-28T10:50:44.644Z,99.90
2019-05-28T10:53:12.025Z,99.90
2019-05-28T10:55:39.277Z,99.90
2019-05-28T10:58:07.154Z,99.90
2019-05-28T11:00:34.424Z,99.90
2019-05-28T11:03:01.659Z,99.90
2019-05-28T11:05:28.996Z,99.90
2019-05-28T11:07:56.677Z,99.90
2019-05-28T11:10:24.913Z,99.90
2019-05-28T11:12:52.556Z,99.90
2019-05-28T11:15:23.620Z,99.90
2019-05-28T11:17:49.732Z,99.90
2019-05-28T11:20:17.975Z,99.90
2019-05-28T11:22:45.648Z,99.90
2019-05-28T11:25:13.924Z,99.90
2019-05-28T11:27:41.181Z,99.90
2019-05-28T11:30:09.024Z,99.90
2019-05-28T11:32:36.260Z,99.90
2019-05-28T11:35:06.174Z,99.90
2019-05-28T11:37:33.512Z,99.80
2019-05-28T11:40:00.795Z,99.20
2019-05-28T11:42:28.141Z,99.90
2019-05-28T11:44:55.373Z,99.90
2019-05-28T11:47:22.718Z,99.90
2019-05-28T11:49:50.062Z,99.90
2019-05-28T11:52:17.629Z,99.90
2019-05-28T11:54:44.953Z,99.90
2019-05-28T11:57:12.560Z,99.90
2019-05-28T11:59:39.821Z,99.90
2019-05-28T12:02:07.386Z,99.90
2019-05-28T12:04:35.076Z,99.10
2019-05-28T12:07:02.592Z,95.40
2019-05-28T12:09:29.859Z,92.70
2019-05-28T12:11:57.118Z,92.10
2019-05-28T12:14:24.374Z,94.00
2019-05-28T12:16:51.702Z,97.50
2019-05-28T12:19:18.976Z,97.90
2019-05-28T12:21:46.297Z,99.90
2019-05-28T12:24:13.522Z,99.90
2019-05-28T12:26:40.963Z,99.90
2019-05-28T12:29:08.466Z,99.90
2019-05-28T12:31:35.720Z,99.90
2019-05-28T12:34:03.006Z,99.90
2019-05-28T12:36:30.306Z,99.90
2019-05-28T12:38:57.582Z,99.90
2019-05-28T12:41:24.853Z,99.90
2019-05-28T12:43:52.399Z,99.90
2019-05-28T12:46:20.161Z,99.90
2019-05-28T12:48:47.441Z,99.90
2019-05-28T12:51:14.696Z,99.90
2019-05-28T12:53:50.499Z,99.90
2019-05-28T12:56:11.158Z,99.90
2019-05-28T12:58:43.133Z,99.90
2019-05-28T13:01:07.646Z,99.90
2019-05-28T13:03:34.930Z,99.90
2019-05-28T13:06:02.282Z,99.90
2019-05-28T13:08:29.817Z,99.90
2019-05-28T13:10:57.101Z,99.90
2019-05-28T13:13:24.744Z,99.90
2019-05-28T13:15:52.478Z,99.90
2019-05-28T13:18:19.791Z,99.90
2019-05-28T13:20:48.274Z,99.90
2019-05-28T13:23:15.893Z,99.90
2019-05-28T13:25:43.228Z,99.90
2019-05-28T13:28:10.978Z,99.90
2019-05-28T13:30:38.544Z,99.90
2019-05-28T13:33:05.899Z,99.90
2019-05-28T13:35:33.252Z,99.90
2019-05-28T13:38:00.788Z,99.90
2019-05-28T13:40:28.024Z,99.90
2019-05-28T13:42:55.225Z,99.90
2019-05-28T13:45:22.904Z,99.90
2019-05-28T13:47:50.568Z,99.90
2019-05-28T13:50:18.402Z,99.90
2019-05-28T13:52:45.997Z,99.90
2019-05-28T13:55:13.735Z,99.90
2019-05-28T13:57:41.242Z,99.90
2019-05-28T14:00:09.770Z,99.90
2019-05-28T14:02:37.290Z,99.90
2019-05-28T14:05:04.913Z,99.90
2019-05-28T14:07:32.149Z,99.90
2019-05-28T14:09:59.734Z,99.90
2019-05-28T14:12:26.967Z,99.90
2019-05-28T14:14:54.223Z,99.90
2019-05-28T14:17:21.840Z,99.90
2019-05-28T14:19:49.459Z,99.90
2019-05-28T14:22:33.108Z,99.90
2019-05-28T14:24:46.273Z,99.90
2019-05-28T14:27:13.593Z,99.90
2019-05-28T14:29:40.862Z,99.90
2019-05-28T14:32:08.408Z,99.90
2019-05-28T14:34:35.659Z,99.90
2019-05-28T14:37:02.930Z,99.90
2019-05-28T14:39:40.645Z,99.90
2019-05-28T14:41:59.320Z,99.90
2019-05-28T14:44:26.552Z,99.90
2019-05-28T14:46:54.162Z,99.90
2019-05-28T14:49:21.820Z,99.90
2019-05-28T14:51:49.146Z,99.90
2019-05-28T14:54:17.136Z,99.90
2019-05-28T14:56:44.289Z,99.90
2019-05-28T14:59:11.440Z,99.90
2019-05-28T15:01:38.897Z,99.90
2019-05-28T15:04:09.149Z,99.90
2019-05-28T15:06:36.476Z,99.90
2019-05-28T15:09:20.956Z,99.90
2019-05-28T15:11:43.092Z,99.90
2019-05-28T15:14:10.377Z,99.90
2019-05-28T15:16:37.649Z,99.90
2019-05-28T15:19:04.892Z,99.90
2019-05-28T15:21:32.473Z,99.90
2019-05-28T15:24:01.469Z,99.90
2019-05-28T15:26:28.720Z,99.90
2019-05-28T15:28:56.257Z,99.90
2019-05-28T15:31:26.075Z,99.90
2019-05-28T15:33:53.328Z,99.90
2019-05-28T15:36:20.985Z,99.90
2019-05-28T15:38:48.664Z,99.90
2019-05-28T15:41:15.829Z,99.90
2019-05-28T15:43:43.056Z,99.90
2019-05-28T15:46:13.349Z,99.90
2019-05-28T15:48:40.699Z,99.90
2019-05-28T15:51:08.285Z,99.90
2019-05-28T15:53:35.991Z,99.90
2019-05-28T15:56:03.811Z,99.90
2019-05-28T15:58:31.107Z,99.90
2019-05-28T16:00:58.464Z,99.90
2019-05-28T16:03:25.721Z,99.90
2019-05-28T16:05:53.320Z,99.90
2019-05-28T16:08:20.671Z,99.90
2019-05-28T16:10:47.913Z,99.90
2019-05-28T16:13:15.183Z,99.90
2019-05-28T16:15:42.467Z,99.90
2019-05-28T16:18:09.792Z,99.90
2019-05-28T16:20:37.893Z,99.90
2019-05-28T16:23:05.074Z,99.90
2019-05-28T16:25:32.348Z,99.90
2019-05-28T16:27:59.595Z,99.90
2019-05-28T16:30:26.941Z,99.90
2019-05-28T16:32:54.316Z,99.90
2019-05-28T16:35:21.538Z,99.90
2019-05-28T16:37:48.785Z,99.90
2019-05-28T16:40:16.738Z,99.90
2019-05-28T16:42:44.149Z,99.90
2019-05-28T16:45:12.884Z,99.90
2019-05-28T16:47:40.528Z,99.90
2019-05-28T16:50:13.359Z,99.90
2019-05-28T16:52:39.572Z,99.90
2019-05-28T16:55:08.709Z,99.90
2019-05-28T16:57:36.299Z,99.90
2019-05-28T17:00:04.700Z,99.90
2019-05-28T17:02:32.327Z,99.90
2019-05-28T17:04:59.869Z,99.90
2019-05-28T17:07:27.136Z,99.90
2019-05-28T17:09:54.775Z,99.90
2019-05-28T17:12:22.012Z,99.90
2019-05-28T17:14:49.601Z,99.90
2019-05-28T17:17:16.867Z,99.90
2019-05-28T17:19:44.917Z,99.90
2019-05-28T17:22:12.672Z,99.90
2019-05-28T17:24:39.951Z,99.90
2019-05-28T17:27:07.208Z,99.90
2019-05-28T17:29:34.484Z,99.90
2019-05-28T17:32:02.029Z,99.90
2019-05-28T17:34:29.653Z,99.90
2019-05-28T17:36:57.230Z,99.90
2019-05-28T17:39:24.687Z,99.90
2019-05-28T17:41:52.364Z,99.90
2019-05-28T17:44:19.636Z,99.90
2019-05-28T17:46:46.908Z,99.90
2019-05-28T17:49:14.288Z,99.90
2019-05-28T17:51:41.561Z,99.90
2019-05-28T17:54:08.903Z,99.90
2019-05-28T17:56:36.205Z,99.90
2019-05-28T17:59:03.520Z,99.90
2019-05-28T18:01:30.779Z,99.90
2019-05-28T18:03:58.318Z,99.90
2019-05-28T18:06:26.024Z,99.90
2019-05-28T18:08:53.249Z,99.90
2019-05-28T18:11:20.814Z,99.90
2019-05-28T18:13:48.085Z,99.90
2019-05-28T18:16:15.433Z,99.90
2019-05-28T18:18:42.790Z,99.90
2019-05-28T18:21:10.332Z,99.90
2019-05-28T18:23:37.584Z,99.90
2019-05-28T18:26:04.934Z,99.90
2019-05-28T18:28:32.591Z,99.90
2019-05-28T18:30:59.820Z,99.90
2019-05-28T18:33:27.409Z,99.90
2019-05-28T18:35:55.348Z,99.90
2019-05-28T18:38:23.319Z,99.90
2019-05-28T18:40:50.926Z,99.90
2019-05-28T18:43:18.175Z,99.90
2019-05-28T18:45:45.614Z,99.90
2019-05-28T18:48:12.860Z,99.90
2019-05-28T18:50:40.204Z,99.90
2019-05-28T18:53:07.769Z,99.90
2019-05-28T18:55:35.046Z,99.90
2019-05-28T18:58:02.359Z,99.90
2019-05-28T19:00:29.764Z,99.90
2019-05-28T19:02:56.992Z,99.90
2019-05-28T19:05:24.533Z,99.90
2019-05-28T19:07:51.803Z,99.90
2019-05-28T19:10:19.352Z,99.90
2019-05-28T19:12:46.601Z,99.90
2019-05-28T19:15:14.410Z,99.90
2019-05-28T19:17:42.016Z,99.90
2019-05-28T19:20:09.792Z,99.90
2019-05-28T19:22:37.130Z,99.90
2019-05-28T19:25:05.967Z,99.90
2019-05-28T19:27:35.602Z,99.90
2019-05-28T19:30:02.282Z,99.90
2019-05-28T19:32:29.600Z,99.90
2019-05-28T19:34:57.215Z,99.90
2019-05-28T19:37:27.266Z,99.90
2019-05-28T19:39:55.267Z,99.90
2019-05-28T19:42:22.866Z,99.90
2019-05-28T19:44:50.132Z,99.90
2019-05-28T19:47:18.073Z,99.90
2019-05-28T19:49:46.371Z,99.90
2019-05-28T19:52:15.962Z,99.90
2019-05-28T19:54:43.210Z,99.90
2019-05-28T19:57:10.528Z,99.90
2019-05-28T19:59:40.618Z,99.90
2019-05-28T20:02:07.937Z,99.90
2019-05-28T20:04:35.792Z,99.90
2019-05-28T20:07:03.105Z,99.90
2019-05-28T20:09:32.122Z,99.90
2019-05-28T20:12:11.565Z,99.90
2019-05-28T20:14:29.157Z,99.90
2019-05-28T20:16:57.427Z,99.90
2019-05-28T20:19:24.920Z,99.90
2019-05-28T20:21:55.058Z,99.90
2019-05-28T20:24:21.446Z,99.90
2019-05-28T20:26:49.870Z,99.90
2019-05-28T20:29:17.415Z,99.90
2019-05-28T20:31:45.168Z,99.90
2019-05-28T20:34:12.728Z,99.90
2019-05-28T20:36:40.146Z,99.90
2019-05-28T20:39:07.828Z,99.90
2019-05-28T20:41:35.837Z,99.90
2019-05-28T20:44:04.240Z,99.90
2019-05-28T20:46:32.502Z,99.90
2019-05-28T20:49:00.676Z,99.90
2019-05-28T20:51:28.032Z,99.90
2019-05-28T20:53:55.290Z,99.90
2019-05-28T20:56:22.582Z,99.90
2019-05-28T20:58:50.056Z,99.90
2019-05-28T21:01:21.040Z,99.90
2019-05-28T21:03:49.660Z,99.90
2019-05-28T21:06:17.099Z,99.90
2019-05-28T21:08:44.740Z,99.90
2019-05-28T21:11:12.005Z,99.90
2019-05-28T21:13:39.308Z,99.90
2019-05-28T21:16:06.580Z,99.90
2019-05-28T21:18:34.112Z,99.90
2019-05-28T21:21:01.865Z,99.90
2019-05-28T21:23:29.488Z,99.90
2019-05-28T21:25:56.724Z,99.90
2019-05-28T21:28:25.868Z,99.90
2019-05-28T21:30:53.161Z,99.90
2019-05-28T21:33:20.704Z,99.90
2019-05-28T21:35:47.956Z,99.90
2019-05-28T21:38:15.233Z,99.90
2019-05-28T21:40:42.762Z,99.90
2019-05-28T21:43:11.436Z,99.90
2019-05-28T21:45:38.733Z,99.90
2019-05-28T21:48:06.241Z,99.90
2019-05-28T21:50:33.945Z,99.90
2019-05-28T21:53:01.306Z,99.90
2019-05-28T21:55:28.716Z,99.90
2019-05-28T21:57:57.681Z,99.90
2019-05-28T22:00:43.673Z,99.90
2019-05-28T22:03:10.920Z,99.90
2019-05-28T22:05:38.083Z,99.90
2019-05-28T22:08:05.484Z,99.90
2019-05-28T22:10:32.868Z,99.90
2019-05-28T22:13:16.661Z,99.90
2019-05-28T22:15:29.624Z,99.90
2019-05-28T22:17:57.942Z,99.90
2019-05-28T22:20:25.368Z,99.90
2019-05-28T22:22:52.632Z,99.90
2019-05-28T22:25:19.888Z,99.90
2019-05-28T22:27:47.230Z,99.90
2019-05-28T22:30:15.090Z,99.90
2019-05-28T22:32:42.345Z,99.90
2019-05-28T22:35:10.254Z,99.90
2019-05-28T22:37:37.503Z,99.90
2019-05-28T22:40:06.019Z,99.90
2019-05-28T22:42:33.867Z,99.90
2019-05-28T22:45:01.188Z,99.90
2019-05-28T22:47:28.334Z,99.90
2019-05-28T22:50:13.659Z,99.90
2019-05-28T22:52:26.121Z,99.90
2019-05-28T22:54:54.195Z,99.90
2019-05-28T22:57:22.599Z,99.90
2019-05-28T22:59:50.249Z,99.90
2019-05-28T23:02:17.805Z,99.90
2019-05-28T23:04:45.453Z,99.90
2019-05-28T23:07:12.732Z,99.90
2019-05-28T23:09:39.976Z,99.90
2019-05-28T23:12:08.173Z,99.90
2019-05-28T23:14:35.512Z,99.90
2019-05-28T23:17:04.182Z,99.90
2019-05-28T23:19:31.532Z,99.90
2019-05-28T23:21:58.879Z,99.90
2019-05-28T23:24:26.111Z,99.90
2019-05-28T23:26:53.381Z,99.90
2019-05-28T23:29:21.498Z,99.90
2019-05-28T23:31:48.764Z,99.90
2019-05-28T23:34:16.030Z,99.90
2019-05-28T23:36:43.379Z,99.90
2019-05-28T23:39:11.119Z,99.90
2019-05-28T23:41:38.552Z,99.90
2019-05-28T23:44:07.476Z,99.90
2019-05-28T23:46:34.976Z,99.90
2019-05-28T23:49:04.005Z,99.90
2019-05-28T23:51:31.424Z,99.90
2019-05-28T23:53:58.564Z,99.90
2019-05-28T23:56:25.788Z,99.90
2019-05-28T23:58:53.049Z,99.90
